sensor_id;sensor_type;location;lat;lon;timestamp;temperature;humidity
8402;DHT22;4238;48.404;9.498;2022-12-29T00:01:28;5.90;1.00
8402;DHT22;4238;48.404;9.498;2022-12-29T00:03:56;6.00;1.00
8402;DHT22;4238;48.404;9.498;2022-12-29T00:06:23;5.90;1.00
8402;DHT22;4238;48.404;9.498;2022-12-29T00:08:50;6.00;1.00
8402;DHT22;4238;48.404;9.498;2022-12-29T00:11:18;5.90;1.00
8402;DHT22;4238;48.404;9.498;2022-12-29T00:13:47;5.90;1.00
8402;DHT22;4238;48.404;9.498;2022-12-29T00:16:32;5.90;1.00
8402;DHT22;4238;48.404;9.498;2022-12-29T00:19:00;6.00;1.00
8402;DHT22;4238;48.404;9.498;2022-12-29T00:21:27;6.00;1.00
8402;DHT22;4238;48.404;9.498;2022-12-29T00:24:14;6.00;1.00
8402;DHT22;4238;48.404;9.498;2022-12-29T00:27:09;6.00;1.00
8402;DHT22;4238;48.404;9.498;2022-12-29T00:29:56;6.00;1.00
8402;DHT22;4238;48.404;9.498;2022-12-29T00:32:40;6.00;1.00
8402;DHT22;4238;48.404;9.498;2022-12-29T00:35:28;6.00;1.00
8402;DHT22;4238;48.404;9.498;2022-12-29T00:37:57;6.00;1.00
8402;DHT22;4238;48.404;9.498;2022-12-29T00:40:43;6.00;1.00
8402;DHT22;4238;48.404;9.498;2022-12-29T00:43:27;6.10;1.00
8402;DHT22;4238;48.404;9.498;2022-12-29T00:46:13;6.10;1.00
8402;DHT22;4238;48.404;9.498;2022-12-29T00:48:39;6.10;1.00
8402;DHT22;4238;48.404;9.498;2022-12-29T00:51:35;6.10;1.00
8402;DHT22;4238;48.404;9.498;2022-12-29T00:54:02;6.20;1.00
8402;DHT22;4238;48.404;9.498;2022-12-29T00:56:29;6.10;1.00
8402;DHT22;4238;48.404;9.498;2022-12-29T00:59:00;6.10;1.00
8402;DHT22;4238;48.404;9.498;2022-12-29T01:01:29;6.10;1.00
8402;DHT22;4238;48.404;9.498;2022-12-29T01:03:56;6.10;1.00
8402;DHT22;4238;48.404;9.498;2022-12-29T01:06:23;6.20;1.00
8402;DHT22;4238;48.404;9.498;2022-12-29T01:08:51;6.10;1.00
8402;DHT22;4238;48.404;9.498;2022-12-29T01:11:32;6.10;1.00
8402;DHT22;4238;48.404;9.498;2022-12-29T01:13:59;6.10;1.00
8402;DHT22;4238;48.404;9.498;2022-12-29T01:16:25;6.10;1.00
8402;DHT22;4238;48.404;9.498;2022-12-29T01:18:54;6.10;1.00
8402;DHT22;4238;48.404;9.498;2022-12-29T01:21:21;6.00;1.00
8402;DHT22;4238;48.404;9.498;2022-12-29T01:23:48;6.00;1.00
8402;DHT22;4238;48.404;9.498;2022-12-29T01:26:16;6.00;1.00
8402;DHT22;4238;48.404;9.498;2022-12-29T01:28:43;6.00;1.00
8402;DHT22;4238;48.404;9.498;2022-12-29T01:31:12;5.90;1.00
8402;DHT22;4238;48.404;9.498;2022-12-29T01:33:39;5.90;1.00
8402;DHT22;4238;48.404;9.498;2022-12-29T01:36:10;5.80;1.00
8402;DHT22;4238;48.404;9.498;2022-12-29T01:38:37;5.80;1.00
8402;DHT22;4238;48.404;9.498;2022-12-29T01:41:06;5.80;1.00
8402;DHT22;4238;48.404;9.498;2022-12-29T01:43:39;5.80;1.00
8402;DHT22;4238;48.404;9.498;2022-12-29T01:46:13;5.80;1.00
8402;DHT22;4238;48.404;9.498;2022-12-29T01:48:42;5.80;1.00
8402;DHT22;4238;48.404;9.498;2022-12-29T01:51:11;5.80;1.00
8402;DHT22;4238;48.404;9.498;2022-12-29T01:53:38;5.80;1.00
8402;DHT22;4238;48.404;9.498;2022-12-29T01:56:07;5.80;1.00
8402;DHT22;4238;48.404;9.498;2022-12-29T01:58:39;5.70;1.00
8402;DHT22;4238;48.404;9.498;2022-12-29T02:01:08;5.80;1.00
8402;DHT22;4238;48.404;9.498;2022-12-29T02:03:35;5.80;1.00
8402;DHT22;4238;48.404;9.498;2022-12-29T02:06:07;5.80;1.00
8402;DHT22;4238;48.404;9.498;2022-12-29T02:08:38;5.80;1.00
8402;DHT22;4238;48.404;9.498;2022-12-29T02:11:05;5.90;1.00
8402;DHT22;4238;48.404;9.498;2022-12-29T02:13:32;5.80;1.00
8402;DHT22;4238;48.404;9.498;2022-12-29T02:16:05;5.70;1.00
8402;DHT22;4238;48.404;9.498;2022-12-29T02:18:43;5.80;1.00
8402;DHT22;4238;48.404;9.498;2022-12-29T02:21:41;5.70;1.00
8402;DHT22;4238;48.404;9.498;2022-12-29T02:24:57;5.70;1.00
8402;DHT22;4238;48.404;9.498;2022-12-29T02:27:53;5.70;1.00
8402;DHT22;4238;48.404;9.498;2022-12-29T02:30:45;5.70;1.00
8402;DHT22;4238;48.404;9.498;2022-12-29T02:33:23;5.70;1.00
8402;DHT22;4238;48.404;9.498;2022-12-29T02:35:58;5.70;1.00
8402;DHT22;4238;48.404;9.498;2022-12-29T02:38:37;5.70;1.00
8402;DHT22;4238;48.404;9.498;2022-12-29T02:41:13;5.60;1.00
8402;DHT22;4238;48.404;9.498;2022-12-29T02:43:49;5.60;1.00
8402;DHT22;4238;48.404;9.498;2022-12-29T02:46:22;5.60;1.00
8402;DHT22;4238;48.404;9.498;2022-12-29T02:48:59;5.60;1.00
8402;DHT22;4238;48.404;9.498;2022-12-29T02:51:33;5.60;1.00
8402;DHT22;4238;48.404;9.498;2022-12-29T02:54:01;5.60;1.00
8402;DHT22;4238;48.404;9.498;2022-12-29T02:56:45;5.70;1.00
8402;DHT22;4238;48.404;9.498;2022-12-29T02:59:12;5.60;1.00
8402;DHT22;4238;48.404;9.498;2022-12-29T03:01:52;5.70;1.00
8402;DHT22;4238;48.404;9.498;2022-12-29T03:05:00;5.60;1.00
8402;DHT22;4238;48.404;9.498;2022-12-29T03:07:36;5.60;1.00
8402;DHT22;4238;48.404;9.498;2022-12-29T03:10:19;5.60;1.00
8402;DHT22;4238;48.404;9.498;2022-12-29T03:12:52;5.60;1.00
8402;DHT22;4238;48.404;9.498;2022-12-29T03:15:43;5.60;1.00
8402;DHT22;4238;48.404;9.498;2022-12-29T03:18:36;5.60;1.00
8402;DHT22;4238;48.404;9.498;2022-12-29T03:21:08;5.60;1.00
8402;DHT22;4238;48.404;9.498;2022-12-29T03:23:37;5.60;1.00
8402;DHT22;4238;48.404;9.498;2022-12-29T03:26:08;5.60;1.00
8402;DHT22;4238;48.404;9.498;2022-12-29T03:28:39;5.60;1.00
8402;DHT22;4238;48.404;9.498;2022-12-29T03:31:08;5.60;1.00
8402;DHT22;4238;48.404;9.498;2022-12-29T03:33:38;5.60;1.00
8402;DHT22;4238;48.404;9.498;2022-12-29T03:36:09;5.60;1.00
8402;DHT22;4238;48.404;9.498;2022-12-29T03:38:42;5.60;1.00
8402;DHT22;4238;48.404;9.498;2022-12-29T03:41:12;5.60;1.00
8402;DHT22;4238;48.404;9.498;2022-12-29T03:43:41;5.60;1.00
8402;DHT22;4238;48.404;9.498;2022-12-29T03:46:08;5.60;1.00
8402;DHT22;4238;48.404;9.498;2022-12-29T03:48:36;5.60;1.00
8402;DHT22;4238;48.404;9.498;2022-12-29T03:51:03;5.60;1.00
8402;DHT22;4238;48.404;9.498;2022-12-29T03:53:30;5.60;1.00
8402;DHT22;4238;48.404;9.498;2022-12-29T03:55:57;5.60;1.00
8402;DHT22;4238;48.404;9.498;2022-12-29T03:58:23;5.60;1.00
8402;DHT22;4238;48.404;9.498;2022-12-29T04:00:50;5.50;1.00
8402;DHT22;4238;48.404;9.498;2022-12-29T04:03:17;5.50;1.00
8402;DHT22;4238;48.404;9.498;2022-12-29T04:05:45;5.50;1.00
8402;DHT22;4238;48.404;9.498;2022-12-29T04:08:12;5.50;1.00
8402;DHT22;4238;48.404;9.498;2022-12-29T04:10:39;5.50;1.00
8402;DHT22;4238;48.404;9.498;2022-12-29T04:13:06;5.40;1.00
8402;DHT22;4238;48.404;9.498;2022-12-29T04:15:34;5.40;1.00
8402;DHT22;4238;48.404;9.498;2022-12-29T04:18:01;5.40;1.00
8402;DHT22;4238;48.404;9.498;2022-12-29T04:20:28;5.50;1.00
8402;DHT22;4238;48.404;9.498;2022-12-29T04:23:13;5.50;1.00
8402;DHT22;4238;48.404;9.498;2022-12-29T04:25:40;5.50;1.00
8402;DHT22;4238;48.404;9.498;2022-12-29T04:28:07;5.40;1.00
8402;DHT22;4238;48.404;9.498;2022-12-29T04:30:34;5.40;1.00
8402;DHT22;4238;48.404;9.498;2022-12-29T04:33:01;5.50;1.00
8402;DHT22;4238;48.404;9.498;2022-12-29T04:35:28;5.40;1.00
8402;DHT22;4238;48.404;9.498;2022-12-29T04:37:55;5.40;1.00
8402;DHT22;4238;48.404;9.498;2022-12-29T04:40:23;5.50;1.00
8402;DHT22;4238;48.404;9.498;2022-12-29T04:42:50;5.30;1.00
8402;DHT22;4238;48.404;9.498;2022-12-29T04:45:17;5.40;1.00
8402;DHT22;4238;48.404;9.498;2022-12-29T04:47:44;5.30;1.00
8402;DHT22;4238;48.404;9.498;2022-12-29T04:50:11;5.40;1.00
8402;DHT22;4238;48.404;9.498;2022-12-29T04:52:38;5.40;1.00
8402;DHT22;4238;48.404;9.498;2022-12-29T04:55:06;5.40;1.00
8402;DHT22;4238;48.404;9.498;2022-12-29T04:57:34;5.40;1.00
8402;DHT22;4238;48.404;9.498;2022-12-29T05:00:02;5.30;1.00
8402;DHT22;4238;48.404;9.498;2022-12-29T05:02:29;5.40;1.00
8402;DHT22;4238;48.404;9.498;2022-12-29T05:04:56;5.40;1.00
8402;DHT22;4238;48.404;9.498;2022-12-29T05:07:23;5.30;1.00
8402;DHT22;4238;48.404;9.498;2022-12-29T05:09:50;5.40;1.00
8402;DHT22;4238;48.404;9.498;2022-12-29T05:12:17;5.40;1.00
8402;DHT22;4238;48.404;9.498;2022-12-29T05:14:45;5.50;1.00
8402;DHT22;4238;48.404;9.498;2022-12-29T05:17:12;5.60;1.00
8402;DHT22;4238;48.404;9.498;2022-12-29T05:19:39;5.60;1.00
8402;DHT22;4238;48.404;9.498;2022-12-29T05:22:06;5.60;1.00
8402;DHT22;4238;48.404;9.498;2022-12-29T05:24:33;5.60;1.00
8402;DHT22;4238;48.404;9.498;2022-12-29T05:27:00;5.60;1.00
8402;DHT22;4238;48.404;9.498;2022-12-29T05:29:26;5.60;1.00
8402;DHT22;4238;48.404;9.498;2022-12-29T05:31:55;5.60;1.00
8402;DHT22;4238;48.404;9.498;2022-12-29T05:34:22;5.70;1.00
8402;DHT22;4238;48.404;9.498;2022-12-29T05:36:48;5.60;1.00
8402;DHT22;4238;48.404;9.498;2022-12-29T05:39:15;5.70;1.00
8402;DHT22;4238;48.404;9.498;2022-12-29T05:41:43;5.70;1.00
8402;DHT22;4238;48.404;9.498;2022-12-29T05:44:10;5.70;1.00
8402;DHT22;4238;48.404;9.498;2022-12-29T05:46:37;5.70;1.00
8402;DHT22;4238;48.404;9.498;2022-12-29T05:49:05;5.80;1.00
8402;DHT22;4238;48.404;9.498;2022-12-29T05:51:32;5.80;1.00
8402;DHT22;4238;48.404;9.498;2022-12-29T05:53:59;5.80;1.00
8402;DHT22;4238;48.404;9.498;2022-12-29T05:56:26;5.80;1.00
8402;DHT22;4238;48.404;9.498;2022-12-29T05:58:53;5.80;1.00
8402;DHT22;4238;48.404;9.498;2022-12-29T06:01:21;5.70;1.00
8402;DHT22;4238;48.404;9.498;2022-12-29T06:03:48;5.70;1.00
8402;DHT22;4238;48.404;9.498;2022-12-29T06:06:16;5.70;1.00
8402;DHT22;4238;48.404;9.498;2022-12-29T06:08:43;5.70;1.00
8402;DHT22;4238;48.404;9.498;2022-12-29T06:11:10;5.70;1.00
8402;DHT22;4238;48.404;9.498;2022-12-29T06:13:37;5.70;1.00
8402;DHT22;4238;48.404;9.498;2022-12-29T06:16:05;5.70;1.00
8402;DHT22;4238;48.404;9.498;2022-12-29T06:18:32;5.70;1.00
8402;DHT22;4238;48.404;9.498;2022-12-29T06:21:00;5.60;1.00
8402;DHT22;4238;48.404;9.498;2022-12-29T06:23:29;5.60;1.00
8402;DHT22;4238;48.404;9.498;2022-12-29T06:25:56;5.60;1.00
8402;DHT22;4238;48.404;9.498;2022-12-29T06:28:23;5.70;1.00
8402;DHT22;4238;48.404;9.498;2022-12-29T06:30:50;5.60;1.00
8402;DHT22;4238;48.404;9.498;2022-12-29T06:33:16;5.70;1.00
8402;DHT22;4238;48.404;9.498;2022-12-29T06:35:44;5.70;1.00
8402;DHT22;4238;48.404;9.498;2022-12-29T06:38:12;5.70;1.00
8402;DHT22;4238;48.404;9.498;2022-12-29T06:40:41;5.80;1.00
8402;DHT22;4238;48.404;9.498;2022-12-29T06:43:10;5.80;1.00
8402;DHT22;4238;48.404;9.498;2022-12-29T06:45:38;5.80;1.00
8402;DHT22;4238;48.404;9.498;2022-12-29T06:48:05;5.80;1.00
8402;DHT22;4238;48.404;9.498;2022-12-29T06:50:32;5.90;1.00
8402;DHT22;4238;48.404;9.498;2022-12-29T06:52:59;5.80;1.00
8402;DHT22;4238;48.404;9.498;2022-12-29T06:55:26;5.90;1.90
8402;DHT22;4238;48.404;9.498;2022-12-29T06:57:55;5.90;1.00
8402;DHT22;4238;48.404;9.498;2022-12-29T07:00:22;5.90;3.20
8402;DHT22;4238;48.404;9.498;2022-12-29T07:02:49;5.90;5.20
8402;DHT22;4238;48.404;9.498;2022-12-29T07:05:16;5.90;8.00
8402;DHT22;4238;48.404;9.498;2022-12-29T07:07:43;5.90;9.80
8402;DHT22;4238;48.404;9.498;2022-12-29T07:10:10;6.00;9.30
8402;DHT22;4238;48.404;9.498;2022-12-29T07:12:37;6.00;8.40
8402;DHT22;4238;48.404;9.498;2022-12-29T07:15:07;6.00;9.20
8402;DHT22;4238;48.404;9.498;2022-12-29T07:17:34;5.90;7.40
8402;DHT22;4238;48.404;9.498;2022-12-29T07:20:00;6.00;5.40
8402;DHT22;4238;48.404;9.498;2022-12-29T07:22:27;5.90;3.90
8402;DHT22;4238;48.404;9.498;2022-12-29T07:24:54;5.90;8.00
8402;DHT22;4238;48.404;9.498;2022-12-29T07:27:21;5.90;7.20
8402;DHT22;4238;48.404;9.498;2022-12-29T07:29:48;5.90;8.00
8402;DHT22;4238;48.404;9.498;2022-12-29T07:32:17;6.00;9.60
8402;DHT22;4238;48.404;9.498;2022-12-29T07:34:44;6.10;5.30
8402;DHT22;4238;48.404;9.498;2022-12-29T07:37:12;6.10;4.30
8402;DHT22;4238;48.404;9.498;2022-12-29T07:39:41;6.10;1.60
8402;DHT22;4238;48.404;9.498;2022-12-29T07:42:08;6.20;1.60
8402;DHT22;4238;48.404;9.498;2022-12-29T07:44:35;6.30;1.00
8402;DHT22;4238;48.404;9.498;2022-12-29T07:47:03;6.30;1.00
8402;DHT22;4238;48.404;9.498;2022-12-29T07:49:31;6.30;1.00
8402;DHT22;4238;48.404;9.498;2022-12-29T07:51:58;6.30;1.00
8402;DHT22;4238;48.404;9.498;2022-12-29T07:54:25;6.30;1.00
8402;DHT22;4238;48.404;9.498;2022-12-29T07:56:52;6.30;1.00
8402;DHT22;4238;48.404;9.498;2022-12-29T07:59:19;6.30;1.00
8402;DHT22;4238;48.404;9.498;2022-12-29T08:01:46;6.30;1.00
8402;DHT22;4238;48.404;9.498;2022-12-29T08:04:19;6.30;1.00
8402;DHT22;4238;48.404;9.498;2022-12-29T08:06:47;6.10;4.10
8402;DHT22;4238;48.404;9.498;2022-12-29T08:09:14;6.00;10.00
8402;DHT22;4238;48.404;9.498;2022-12-29T08:11:41;6.00;12.60
8402;DHT22;4238;48.404;9.498;2022-12-29T08:14:09;5.80;23.50
8402;DHT22;4238;48.404;9.498;2022-12-29T08:16:36;5.90;25.90
8402;DHT22;4238;48.404;9.498;2022-12-29T08:19:03;5.90;27.50
8402;DHT22;4238;48.404;9.498;2022-12-29T08:21:31;5.70;37.60
8402;DHT22;4238;48.404;9.498;2022-12-29T08:24:00;5.70;40.50
8402;DHT22;4238;48.404;9.498;2022-12-29T08:26:27;5.70;45.00
8402;DHT22;4238;48.404;9.498;2022-12-29T08:28:54;5.70;48.10
8402;DHT22;4238;48.404;9.498;2022-12-29T08:31:22;5.70;48.00
8402;DHT22;4238;48.404;9.498;2022-12-29T08:33:49;5.90;44.70
8402;DHT22;4238;48.404;9.498;2022-12-29T08:36:17;5.80;50.70
8402;DHT22;4238;48.404;9.498;2022-12-29T08:38:44;5.90;51.60
8402;DHT22;4238;48.404;9.498;2022-12-29T08:41:12;5.90;51.30
8402;DHT22;4238;48.404;9.498;2022-12-29T08:43:39;6.00;50.10
8402;DHT22;4238;48.404;9.498;2022-12-29T08:46:06;6.10;46.10
8402;DHT22;4238;48.404;9.498;2022-12-29T08:48:33;6.20;43.20
8402;DHT22;4238;48.404;9.498;2022-12-29T08:51:00;6.30;39.10
8402;DHT22;4238;48.404;9.498;2022-12-29T08:53:27;6.40;36.30
8402;DHT22;4238;48.404;9.498;2022-12-29T08:55:58;6.60;35.20
8402;DHT22;4238;48.404;9.498;2022-12-29T08:58:27;6.60;29.40
8402;DHT22;4238;48.404;9.498;2022-12-29T09:00:55;6.70;31.30
8402;DHT22;4238;48.404;9.498;2022-12-29T09:03:23;6.80;26.40
8402;DHT22;4238;48.404;9.498;2022-12-29T09:05:50;6.90;25.40
8402;DHT22;4238;48.404;9.498;2022-12-29T09:08:17;7.00;30.90
8402;DHT22;4238;48.404;9.498;2022-12-29T09:10:44;7.10;22.80
8402;DHT22;4238;48.404;9.498;2022-12-29T09:13:12;7.20;22.50
8402;DHT22;4238;48.404;9.498;2022-12-29T09:15:41;7.30;20.90
8402;DHT22;4238;48.404;9.498;2022-12-29T09:18:09;7.40;15.20
8402;DHT22;4238;48.404;9.498;2022-12-29T09:20:36;7.50;20.70
8402;DHT22;4238;48.404;9.498;2022-12-29T09:23:03;7.50;18.00
8402;DHT22;4238;48.404;9.498;2022-12-29T09:25:31;7.60;21.90
8402;DHT22;4238;48.404;9.498;2022-12-29T09:27:58;7.70;14.60
8402;DHT22;4238;48.404;9.498;2022-12-29T09:30:29;7.70;12.00
8402;DHT22;4238;48.404;9.498;2022-12-29T09:32:57;7.70;17.30
8402;DHT22;4238;48.404;9.498;2022-12-29T09:35:24;7.80;17.10
8402;DHT22;4238;48.404;9.498;2022-12-29T09:37:51;7.80;15.10
8402;DHT22;4238;48.404;9.498;2022-12-29T09:40:25;7.80;16.20
8402;DHT22;4238;48.404;9.498;2022-12-29T09:43:23;8.00;10.80
8402;DHT22;4238;48.404;9.498;2022-12-29T09:46:01;8.10;3.40
8402;DHT22;4238;48.404;9.498;2022-12-29T09:48:35;8.20;1.00
8402;DHT22;4238;48.404;9.498;2022-12-29T09:51:08;8.10;1.00
8402;DHT22;4238;48.404;9.498;2022-12-29T09:53:38;8.10;6.50
8402;DHT22;4238;48.404;9.498;2022-12-29T09:56:11;8.10;4.00
8402;DHT22;4238;48.404;9.498;2022-12-29T09:58:42;8.20;1.00
8402;DHT22;4238;48.404;9.498;2022-12-29T10:01:21;8.20;6.50
8402;DHT22;4238;48.404;9.498;2022-12-29T10:03:55;8.20;1.70
8402;DHT22;4238;48.404;9.498;2022-12-29T10:06:26;8.30;1.00
8402;DHT22;4238;48.404;9.498;2022-12-29T10:09:01;8.30;3.50
8402;DHT22;4238;48.404;9.498;2022-12-29T10:11:40;8.40;1.00
8402;DHT22;4238;48.404;9.498;2022-12-29T10:14:25;8.50;5.00
8402;DHT22;4238;48.404;9.498;2022-12-29T10:17:01;8.60;1.00
8402;DHT22;4238;48.404;9.498;2022-12-29T10:19:52;8.70;1.00
8402;DHT22;4238;48.404;9.498;2022-12-29T10:22:32;8.80;1.00
8402;DHT22;4238;48.404;9.498;2022-12-29T10:25:11;8.90;1.00
8402;DHT22;4238;48.404;9.498;2022-12-29T10:27:39;8.90;1.00
8402;DHT22;4238;48.404;9.498;2022-12-29T10:30:12;8.90;1.00
8402;DHT22;4238;48.404;9.498;2022-12-29T10:32:43;8.90;1.00
8402;DHT22;4238;48.404;9.498;2022-12-29T10:35:16;9.00;1.00
8402;DHT22;4238;48.404;9.498;2022-12-29T10:37:48;9.00;1.00
8402;DHT22;4238;48.404;9.498;2022-12-29T10:40:21;8.90;1.00
8402;DHT22;4238;48.404;9.498;2022-12-29T10:42:53;8.90;1.00
8402;DHT22;4238;48.404;9.498;2022-12-29T10:45:21;8.90;1.00
8402;DHT22;4238;48.404;9.498;2022-12-29T10:47:55;8.90;1.00
8402;DHT22;4238;48.404;9.498;2022-12-29T10:50:26;8.90;1.00
8402;DHT22;4238;48.404;9.498;2022-12-29T10:52:56;8.90;1.00
8402;DHT22;4238;48.404;9.498;2022-12-29T10:55:28;8.80;1.00
8402;DHT22;4238;48.404;9.498;2022-12-29T10:58:06;8.80;1.00
8402;DHT22;4238;48.404;9.498;2022-12-29T11:00:34;8.80;1.00
8402;DHT22;4238;48.404;9.498;2022-12-29T11:03:30;8.80;1.00
8402;DHT22;4238;48.404;9.498;2022-12-29T11:06:06;8.80;1.00
8402;DHT22;4238;48.404;9.498;2022-12-29T11:08:38;8.90;1.00
8402;DHT22;4238;48.404;9.498;2022-12-29T11:11:08;9.00;1.00
8402;DHT22;4238;48.404;9.498;2022-12-29T11:13:46;9.20;1.00
8402;DHT22;4238;48.404;9.498;2022-12-29T11:16:13;9.30;1.00
8402;DHT22;4238;48.404;9.498;2022-12-29T11:18:40;9.20;1.00
8402;DHT22;4238;48.404;9.498;2022-12-29T11:21:26;9.30;1.00
8402;DHT22;4238;48.404;9.498;2022-12-29T11:23:57;9.40;1.00
8402;DHT22;4238;48.404;9.498;2022-12-29T11:26:24;9.40;1.00
8402;DHT22;4238;48.404;9.498;2022-12-29T11:29:20;9.30;1.00
8402;DHT22;4238;48.404;9.498;2022-12-29T11:31:49;9.50;1.00
8402;DHT22;4238;48.404;9.498;2022-12-29T11:34:17;9.60;1.00
8402;DHT22;4238;48.404;9.498;2022-12-29T11:36:46;9.60;1.00
8402;DHT22;4238;48.404;9.498;2022-12-29T11:39:33;9.50;1.00
8402;DHT22;4238;48.404;9.498;2022-12-29T11:42:01;9.50;1.00
8402;DHT22;4238;48.404;9.498;2022-12-29T11:44:35;9.50;5.30
8402;DHT22;4238;48.404;9.498;2022-12-29T11:47:04;9.40;20.20
8402;DHT22;4238;48.404;9.498;2022-12-29T11:49:32;9.40;28.20
8402;DHT22;4238;48.404;9.498;2022-12-29T11:52:00;9.30;13.50
8402;DHT22;4238;48.404;9.498;2022-12-29T11:54:30;9.30;18.50
8402;DHT22;4238;48.404;9.498;2022-12-29T11:57:09;9.30;15.20
8402;DHT22;4238;48.404;9.498;2022-12-29T11:59:40;9.30;8.80
8402;DHT22;4238;48.404;9.498;2022-12-29T12:02:42;9.40;4.20
8402;DHT22;4238;48.404;9.498;2022-12-29T12:05:23;9.30;9.90
8402;DHT22;4238;48.404;9.498;2022-12-29T12:07:56;9.40;16.40
8402;DHT22;4238;48.404;9.498;2022-12-29T12:10:30;9.40;6.20
8402;DHT22;4238;48.404;9.498;2022-12-29T12:13:14;9.50;11.00
8402;DHT22;4238;48.404;9.498;2022-12-29T12:15:46;9.40;1.00
8402;DHT22;4238;48.404;9.498;2022-12-29T12:18:18;9.40;3.60
8402;DHT22;4238;48.404;9.498;2022-12-29T12:20:52;9.40;2.80
8402;DHT22;4238;48.404;9.498;2022-12-29T12:23:36;9.30;6.10
8402;DHT22;4238;48.404;9.498;2022-12-29T12:26:11;9.30;15.60
8402;DHT22;4238;48.404;9.498;2022-12-29T12:28:46;9.20;21.20
8402;DHT22;4238;48.404;9.498;2022-12-29T12:31:21;9.20;30.80
8402;DHT22;4238;48.404;9.498;2022-12-29T12:33:56;9.10;56.00
8402;DHT22;4238;48.404;9.498;2022-12-29T12:36:35;9.10;73.80
8402;DHT22;4238;48.404;9.498;2022-12-29T12:39:11;9.20;80.00
8402;DHT22;4238;48.404;9.498;2022-12-29T12:41:48;9.30;77.90
8402;DHT22;4238;48.404;9.498;2022-12-29T12:44:24;9.40;72.00
8402;DHT22;4238;48.404;9.498;2022-12-29T12:47:11;9.40;72.20
8402;DHT22;4238;48.404;9.498;2022-12-29T12:50:06;9.50;70.70
8402;DHT22;4238;48.404;9.498;2022-12-29T12:52:48;9.50;67.30
8402;DHT22;4238;48.404;9.498;2022-12-29T12:55:34;9.50;72.00
8402;DHT22;4238;48.404;9.498;2022-12-29T12:58:14;9.50;64.10
8402;DHT22;4238;48.404;9.498;2022-12-29T13:00:54;9.50;57.80
8402;DHT22;4238;48.404;9.498;2022-12-29T13:03:31;9.50;66.80
8402;DHT22;4238;48.404;9.498;2022-12-29T13:06:18;9.50;52.00
8402;DHT22;4238;48.404;9.498;2022-12-29T13:09:10;9.40;73.90
8402;DHT22;4238;48.404;9.498;2022-12-29T13:11:54;9.40;87.60
8402;DHT22;4238;48.404;9.498;2022-12-29T13:14:36;9.40;94.40
8402;DHT22;4238;48.404;9.498;2022-12-29T13:17:11;9.40;94.10
8402;DHT22;4238;48.404;9.498;2022-12-29T13:19:43;9.40;83.70
8402;DHT22;4238;48.404;9.498;2022-12-29T13:22:17;9.30;97.30
8402;DHT22;4238;48.404;9.498;2022-12-29T13:24:56;9.20;99.90
8402;DHT22;4238;48.404;9.498;2022-12-29T13:27:34;9.20;99.90
8402;DHT22;4238;48.404;9.498;2022-12-29T13:30:09;9.20;99.90
8402;DHT22;4238;48.404;9.498;2022-12-29T13:32:55;9.10;99.90
8402;DHT22;4238;48.404;9.498;2022-12-29T13:35:32;9.10;99.90
8402;DHT22;4238;48.404;9.498;2022-12-29T13:38:12;9.10;99.90
8402;DHT22;4238;48.404;9.498;2022-12-29T13:40:46;9.10;97.00
8402;DHT22;4238;48.404;9.498;2022-12-29T13:43:16;9.20;98.10
8402;DHT22;4238;48.404;9.498;2022-12-29T13:45:45;9.20;91.20
8402;DHT22;4238;48.404;9.498;2022-12-29T13:48:17;9.20;93.80
8402;DHT22;4238;48.404;9.498;2022-12-29T13:50:50;9.30;90.40
8402;DHT22;4238;48.404;9.498;2022-12-29T13:53:24;9.30;91.40
8402;DHT22;4238;48.404;9.498;2022-12-29T13:56:02;9.30;95.20
8402;DHT22;4238;48.404;9.498;2022-12-29T13:58:39;9.30;91.50
8402;DHT22;4238;48.404;9.498;2022-12-29T14:01:17;9.20;87.00
8402;DHT22;4238;48.404;9.498;2022-12-29T14:03:48;9.30;90.20
8402;DHT22;4238;48.404;9.498;2022-12-29T14:06:21;9.30;90.50
8402;DHT22;4238;48.404;9.498;2022-12-29T14:08:50;9.30;95.40
8402;DHT22;4238;48.404;9.498;2022-12-29T14:11:21;9.20;92.10
8402;DHT22;4238;48.404;9.498;2022-12-29T14:13:51;9.20;90.30
8402;DHT22;4238;48.404;9.498;2022-12-29T14:16:27;9.10;91.60
8402;DHT22;4238;48.404;9.498;2022-12-29T14:18:56;9.10;94.90
8402;DHT22;4238;48.404;9.498;2022-12-29T14:21:25;9.10;99.60
8402;DHT22;4238;48.404;9.498;2022-12-29T14:26:42;9.00;93.90
8402;DHT22;4238;48.404;9.498;2022-12-29T14:29:43;9.00;81.30
8402;DHT22;4238;48.404;9.498;2022-12-29T14:32:35;9.10;85.10
8402;DHT22;4238;48.404;9.498;2022-12-29T14:35:40;9.10;85.90
8402;DHT22;4238;48.404;9.498;2022-12-29T14:38:18;9.10;83.10
8402;DHT22;4238;48.404;9.498;2022-12-29T14:40:46;9.00;81.00
8402;DHT22;4238;48.404;9.498;2022-12-29T14:43:23;9.10;83.80
8402;DHT22;4238;48.404;9.498;2022-12-29T14:46:08;9.00;85.60
8402;DHT22;4238;48.404;9.498;2022-12-29T14:48:42;9.00;86.80
8402;DHT22;4238;48.404;9.498;2022-12-29T14:51:26;9.00;76.40
8402;DHT22;4238;48.404;9.498;2022-12-29T14:53:55;9.00;78.90
8402;DHT22;4238;48.404;9.498;2022-12-29T14:56:25;9.00;76.30
8402;DHT22;4238;48.404;9.498;2022-12-29T14:58:55;9.00;78.70
8402;DHT22;4238;48.404;9.498;2022-12-29T15:01:32;9.00;78.30
8402;DHT22;4238;48.404;9.498;2022-12-29T15:04:06;9.00;71.40
8402;DHT22;4238;48.404;9.498;2022-12-29T15:06:40;9.00;70.50
8402;DHT22;4238;48.404;9.498;2022-12-29T15:09:16;9.00;73.90
8402;DHT22;4238;48.404;9.498;2022-12-29T15:11:51;9.00;69.60
8402;DHT22;4238;48.404;9.498;2022-12-29T15:14:29;8.90;71.60
8402;DHT22;4238;48.404;9.498;2022-12-29T15:16:58;8.90;72.70
8402;DHT22;4238;48.404;9.498;2022-12-29T15:19:26;8.90;73.10
8402;DHT22;4238;48.404;9.498;2022-12-29T15:21:54;8.90;73.40
8402;DHT22;4238;48.404;9.498;2022-12-29T15:24:23;8.90;76.60
8402;DHT22;4238;48.404;9.498;2022-12-29T15:26:52;8.90;71.40
8402;DHT22;4238;48.404;9.498;2022-12-29T15:29:36;8.80;79.80
8402;DHT22;4238;48.404;9.498;2022-12-29T15:32:21;8.80;78.40
8402;DHT22;4238;48.404;9.498;2022-12-29T15:34:49;8.80;76.00
8402;DHT22;4238;48.404;9.498;2022-12-29T15:37:22;8.80;77.30
8402;DHT22;4238;48.404;9.498;2022-12-29T15:39:50;8.80;81.70
8402;DHT22;4238;48.404;9.498;2022-12-29T15:42:47;8.80;81.80
8402;DHT22;4238;48.404;9.498;2022-12-29T15:45:17;8.70;88.30
8402;DHT22;4238;48.404;9.498;2022-12-29T15:47:46;8.70;83.70
8402;DHT22;4238;48.404;9.498;2022-12-29T15:50:21;8.70;84.10
8402;DHT22;4238;48.404;9.498;2022-12-29T15:52:48;8.60;86.90
8402;DHT22;4238;48.404;9.498;2022-12-29T15:55:27;8.60;84.00
8402;DHT22;4238;48.404;9.498;2022-12-29T15:57:57;8.50;87.80
8402;DHT22;4238;48.404;9.498;2022-12-29T16:00:26;8.50;90.20
8402;DHT22;4238;48.404;9.498;2022-12-29T16:02:56;8.50;90.70
8402;DHT22;4238;48.404;9.498;2022-12-29T16:05:24;8.40;91.50
8402;DHT22;4238;48.404;9.498;2022-12-29T16:07:55;8.40;91.70
8402;DHT22;4238;48.404;9.498;2022-12-29T16:10:27;8.30;94.20
8402;DHT22;4238;48.404;9.498;2022-12-29T16:13:01;8.20;96.50
8402;DHT22;4238;48.404;9.498;2022-12-29T16:15:29;8.20;96.10
8402;DHT22;4238;48.404;9.498;2022-12-29T16:17:57;8.20;96.80
8402;DHT22;4238;48.404;9.498;2022-12-29T16:20:30;8.20;97.20
8402;DHT22;4238;48.404;9.498;2022-12-29T16:22:59;8.20;97.30
8402;DHT22;4238;48.404;9.498;2022-12-29T16:25:29;8.10;97.60
8402;DHT22;4238;48.404;9.498;2022-12-29T16:28:00;8.10;98.60
8402;DHT22;4238;48.404;9.498;2022-12-29T16:30:29;8.10;98.20
8402;DHT22;4238;48.404;9.498;2022-12-29T16:32:59;8.10;98.10
8402;DHT22;4238;48.404;9.498;2022-12-29T16:35:29;8.10;98.00
8402;DHT22;4238;48.404;9.498;2022-12-29T16:38:14;8.10;96.30
8402;DHT22;4238;48.404;9.498;2022-12-29T16:40:50;8.10;96.20
8402;DHT22;4238;48.404;9.498;2022-12-29T16:43:22;8.00;96.00
8402;DHT22;4238;48.404;9.498;2022-12-29T16:46:18;8.00;96.70
8402;DHT22;4238;48.404;9.498;2022-12-29T16:48:52;8.00;96.40
8402;DHT22;4238;48.404;9.498;2022-12-29T16:51:28;7.90;97.10
8402;DHT22;4238;48.404;9.498;2022-12-29T16:53:56;8.00;98.50
8402;DHT22;4238;48.404;9.498;2022-12-29T16:56:26;8.00;97.70
8402;DHT22;4238;48.404;9.498;2022-12-29T16:59:00;8.00;97.00
8402;DHT22;4238;48.404;9.498;2022-12-29T17:01:28;8.00;97.20
8402;DHT22;4238;48.404;9.498;2022-12-29T17:03:59;8.00;96.60